sensor_id;sensor_type;location;lat;lon;timestamp;pressure;altitude;pressure_sealevel;temperature;humidity
46722;BME280;32455;43.430;23.136;2023-02-18T00:02:03;98744.31;;;5.19;63.02
46722;BME280;32455;43.430;23.136;2023-02-18T00:04:48;98747.38;;;5.39;62.65
46722;BME280;32455;43.430;23.136;2023-02-18T00:07:34;98749.53;;;5.44;62.73
46722;BME280;32455;43.430;23.136;2023-02-18T00:10:19;98752.13;;;5.52;61.75
46722;BME280;32455;43.430;23.136;2023-02-18T00:13:05;98738.63;;;5.99;60.65
46722;BME280;32455;43.430;23.136;2023-02-18T00:15:50;98741.25;;;6.08;59.97
46722;BME280;32455;43.430;23.136;2023-02-18T00:18:35;98735.25;;;5.60;63.17
46722;BME280;32455;43.430;23.136;2023-02-18T00:21:20;98731.38;;;5.08;64.86
46722;BME280;32455;43.430;23.136;2023-02-18T00:24:05;98745.91;;;5.60;61.91
46722;BME280;32455;43.430;23.136;2023-02-18T00:26:51;98739.31;;;6.01;59.30
46722;BME280;32455;43.430;23.136;2023-02-18T00:29:36;98732.56;;;6.28;58.56
46722;BME280;32455;43.430;23.136;2023-02-18T00:32:21;98737.06;;;6.28;58.08
46722;BME280;32455;43.430;23.136;2023-02-18T00:35:06;98723.09;;;6.41;57.34
46722;BME280;32455;43.430;23.136;2023-02-18T00:37:51;98728.72;;;5.85;60.25
46722;BME280;32455;43.430;23.136;2023-02-18T00:40:39;98727.31;;;5.74;61.38
46722;BME280;32455;43.430;23.136;2023-02-18T00:43:24;98730.09;;;5.58;61.66
46722;BME280;32455;43.430;23.136;2023-02-18T00:46:09;98715.84;;;5.97;60.21
46722;BME280;32455;43.430;23.136;2023-02-18T00:48:55;98721.03;;;6.13;59.13
46722;BME280;32455;43.430;23.136;2023-02-18T00:51:39;98717.75;;;6.41;57.98
46722;BME280;32455;43.430;23.136;2023-02-18T00:54:23;98718.69;;;6.48;56.93
46722;BME280;32455;43.430;23.136;2023-02-18T00:57:09;98711.31;;;6.35;58.29
46722;BME280;32455;43.430;23.136;2023-02-18T00:59:54;98702.47;;;6.49;57.35
46722;BME280;32455;43.430;23.136;2023-02-18T01:02:39;98709.66;;;6.49;57.01
46722;BME280;32455;43.430;23.136;2023-02-18T01:05:24;98702.28;;;6.21;58.64
46722;BME280;32455;43.430;23.136;2023-02-18T01:08:10;98707.84;;;6.64;56.13
46722;BME280;32455;43.430;23.136;2023-02-18T01:10:56;98709.84;;;6.62;56.50
46722;BME280;32455;43.430;23.136;2023-02-18T01:13:42;98705.44;;;6.69;55.49
46722;BME280;32455;43.430;23.136;2023-02-18T01:16:27;98699.28;;;6.69;56.22
46722;BME280;32455;43.430;23.136;2023-02-18T01:19:12;98700.28;;;6.83;55.08
46722;BME280;32455;43.430;23.136;2023-02-18T01:21:57;98702.09;;;6.97;55.04
46722;BME280;32455;43.430;23.136;2023-02-18T01:24:42;98700.47;;;6.81;55.77
46722;BME280;32455;43.430;23.136;2023-02-18T01:27:28;98699.63;;;6.81;55.47
46722;BME280;32455;43.430;23.136;2023-02-18T01:30:14;98697.56;;;6.97;54.14
46722;BME280;32455;43.430;23.136;2023-02-18T01:32:59;98694.38;;;6.87;55.54
46722;BME280;32455;43.430;23.136;2023-02-18T01:35:46;98690.38;;;6.98;54.57
46722;BME280;32455;43.430;23.136;2023-02-18T01:38:31;98682.69;;;7.24;53.64
46722;BME280;32455;43.430;23.136;2023-02-18T01:41:16;98685.13;;;7.41;52.85
46722;BME280;32455;43.430;23.136;2023-02-18T01:44:23;98673.16;;;7.15;53.53
46722;BME280;32455;43.430;23.136;2023-02-18T01:47:06;98669.84;;;7.56;52.02
46722;BME280;32455;43.430;23.136;2023-02-18T01:49:53;98674.13;;;7.72;51.29
46722;BME280;32455;43.430;23.136;2023-02-18T01:52:38;98670.66;;;7.99;50.57
46722;BME280;32455;43.430;23.136;2023-02-18T01:55:23;98655.28;;;8.36;49.28
46722;BME280;32455;43.430;23.136;2023-02-18T01:58:08;98662.78;;;8.47;48.94
46722;BME280;32455;43.430;23.136;2023-02-18T02:00:55;98657.09;;;8.64;47.80
46722;BME280;32455;43.430;23.136;2023-02-18T02:03:40;98657.16;;;8.77;47.48
46722;BME280;32455;43.430;23.136;2023-02-18T02:06:25;98663.06;;;8.59;47.82
46722;BME280;32455;43.430;23.136;2023-02-18T02:09:11;98670.38;;;8.78;47.29
46722;BME280;32455;43.430;23.136;2023-02-18T02:24:02;98643.25;;;9.01;46.54
46722;BME280;32455;43.430;23.136;2023-02-18T02:27:11;98632.06;;;8.85;47.20
46722;BME280;32455;43.430;23.136;2023-02-18T02:33:06;98636.50;;;9.12;46.48
46722;BME280;32455;43.430;23.136;2023-02-18T02:36:15;98645.00;;;9.36;45.91
46722;BME280;32455;43.430;23.136;2023-02-18T02:39:07;98644.53;;;9.19;46.29
46722;BME280;32455;43.430;23.136;2023-02-18T02:44:55;98644.16;;;9.42;45.50
46722;BME280;32455;43.430;23.136;2023-02-18T02:50:44;98646.66;;;9.37;45.22
46722;BME280;32455;43.430;23.136;2023-02-18T02:53:31;98645.63;;;9.44;44.93
46722;BME280;32455;43.430;23.136;2023-02-18T02:56:18;98643.53;;;9.33;46.07
46722;BME280;32455;43.430;23.136;2023-02-18T02:59:05;98648.13;;;9.59;44.38
46722;BME280;32455;43.430;23.136;2023-02-18T03:01:56;98646.25;;;9.53;44.81
46722;BME280;32455;43.430;23.136;2023-02-18T03:05:09;98646.06;;;9.54;45.63
46722;BME280;32455;43.430;23.136;2023-02-18T03:11:03;98639.06;;;10.13;44.35
46722;BME280;32455;43.430;23.136;2023-02-18T03:22:16;98637.81;;;10.16;43.32
46722;BME280;32455;43.430;23.136;2023-02-18T03:25:02;98634.09;;;10.30;43.59
46722;BME280;32455;43.430;23.136;2023-02-18T03:27:52;98627.28;;;10.27;43.08
46722;BME280;32455;43.430;23.136;2023-02-18T03:30:41;98614.44;;;10.43;42.82
46722;BME280;32455;43.430;23.136;2023-02-18T03:33:34;98619.56;;;10.58;42.52
46722;BME280;32455;43.430;23.136;2023-02-18T03:36:21;98619.78;;;10.56;42.30
46722;BME280;32455;43.430;23.136;2023-02-18T03:39:08;98621.03;;;10.53;42.03
46722;BME280;32455;43.430;23.136;2023-02-18T03:41:54;98621.28;;;10.45;42.34
46722;BME280;32455;43.430;23.136;2023-02-18T03:44:39;98626.22;;;10.42;42.48
46722;BME280;32455;43.430;23.136;2023-02-18T03:47:24;98627.09;;;10.29;42.80
46722;BME280;32455;43.430;23.136;2023-02-18T03:50:08;98631.19;;;10.38;42.21
46722;BME280;32455;43.430;23.136;2023-02-18T03:52:54;98631.53;;;10.68;41.57
46722;BME280;32455;43.430;23.136;2023-02-18T03:55:39;98639.41;;;10.63;42.81
46722;BME280;32455;43.430;23.136;2023-02-18T03:58:24;98631.94;;;10.72;41.79
46722;BME280;32455;43.430;23.136;2023-02-18T04:01:09;98648.25;;;10.84;41.85
46722;BME280;32455;43.430;23.136;2023-02-18T04:03:54;98634.63;;;10.72;41.95
46722;BME280;32455;43.430;23.136;2023-02-18T04:06:39;98642.22;;;10.82;41.39
46722;BME280;32455;43.430;23.136;2023-02-18T04:09:24;98637.72;;;10.69;41.56
46722;BME280;32455;43.430;23.136;2023-02-18T04:12:10;98662.38;;;10.52;42.79
46722;BME280;32455;43.430;23.136;2023-02-18T04:14:55;98677.28;;;10.35;42.48
46722;BME280;32455;43.430;23.136;2023-02-18T04:17:40;98684.28;;;10.43;42.86
46722;BME280;32455;43.430;23.136;2023-02-18T04:20:25;98686.16;;;10.42;42.92
46722;BME280;32455;43.430;23.136;2023-02-18T04:23:11;98684.13;;;10.24;42.90
46722;BME280;32455;43.430;23.136;2023-02-18T04:25:56;98675.41;;;10.22;43.14
46722;BME280;32455;43.430;23.136;2023-02-18T04:28:41;98665.91;;;10.13;44.82
46722;BME280;32455;43.430;23.136;2023-02-18T04:31:26;98666.53;;;9.69;47.39
46722;BME280;32455;43.430;23.136;2023-02-18T04:34:11;98660.19;;;9.15;50.14
46722;BME280;32455;43.430;23.136;2023-02-18T04:36:56;98654.22;;;9.13;49.57
46722;BME280;32455;43.430;23.136;2023-02-18T04:39:42;98645.44;;;8.78;53.14
46722;BME280;32455;43.430;23.136;2023-02-18T04:42:27;98647.13;;;8.44;55.58
46722;BME280;32455;43.430;23.136;2023-02-18T04:45:12;98640.72;;;8.45;56.32
46722;BME280;32455;43.430;23.136;2023-02-18T04:47:57;98638.56;;;8.34;57.99
46722;BME280;32455;43.430;23.136;2023-02-18T04:50:43;98629.25;;;8.23;56.07
46722;BME280;32455;43.430;23.136;2023-02-18T04:53:28;98606.41;;;8.27;58.18
46722;BME280;32455;43.430;23.136;2023-02-18T04:56:13;98607.41;;;7.92;58.98
46722;BME280;32455;43.430;23.136;2023-02-18T04:58:58;98614.53;;;8.13;56.04
46722;BME280;32455;43.430;23.136;2023-02-18T05:01:44;98604.94;;;8.53;52.78
46722;BME280;32455;43.430;23.136;2023-02-18T05:04:28;98597.06;;;8.99;51.00
46722;BME280;32455;43.430;23.136;2023-02-18T05:07:14;98603.34;;;9.46;48.36
46722;BME280;32455;43.430;23.136;2023-02-18T05:09:59;98590.13;;;9.58;46.85
46722;BME280;32455;43.430;23.136;2023-02-18T05:12:44;98588.91;;;9.74;46.60
46722;BME280;32455;43.430;23.136;2023-02-18T05:15:29;98602.72;;;10.04;45.16
46722;BME280;32455;43.430;23.136;2023-02-18T05:18:14;98609.94;;;9.97;45.81
46722;BME280;32455;43.430;23.136;2023-02-18T05:20:59;98610.75;;;9.97;45.34
46722;BME280;32455;43.430;23.136;2023-02-18T05:23:43;98604.38;;;9.92;44.98
46722;BME280;32455;43.430;23.136;2023-02-18T05:26:28;98605.84;;;9.81;45.53
46722;BME280;32455;43.430;23.136;2023-02-18T05:29:13;98611.38;;;10.06;44.23
46722;BME280;32455;43.430;23.136;2023-02-18T05:31:58;98618.41;;;10.07;43.64
46722;BME280;32455;43.430;23.136;2023-02-18T05:34:43;98614.50;;;9.90;44.44
46722;BME280;32455;43.430;23.136;2023-02-18T05:37:28;98612.81;;;10.09;44.05
46722;BME280;32455;43.430;23.136;2023-02-18T05:40:13;98622.50;;;10.23;43.56
46722;BME280;32455;43.430;23.136;2023-02-18T05:42:58;98616.13;;;10.31;43.01
46722;BME280;32455;43.430;23.136;2023-02-18T05:45:43;98621.06;;;10.40;42.92
46722;BME280;32455;43.430;23.136;2023-02-18T05:48:28;98613.44;;;10.31;43.31
46722;BME280;32455;43.430;23.136;2023-02-18T05:51:14;98620.69;;;10.37;42.90
46722;BME280;32455;43.430;23.136;2023-02-18T05:53:59;98621.91;;;10.21;43.66
46722;BME280;32455;43.430;23.136;2023-02-18T05:56:44;98613.44;;;10.31;43.23
46722;BME280;32455;43.430;23.136;2023-02-18T05:59:29;98607.81;;;10.52;43.35
46722;BME280;32455;43.430;23.136;2023-02-18T06:02:14;98607.75;;;10.65;42.77
46722;BME280;32455;43.430;23.136;2023-02-18T06:05:00;98609.56;;;10.85;42.27
46722;BME280;32455;43.430;23.136;2023-02-18T06:07:44;98604.59;;;10.88;42.95
46722;BME280;32455;43.430;23.136;2023-02-18T06:10:30;98607.84;;;10.97;41.74
46722;BME280;32455;43.430;23.136;2023-02-18T06:13:15;98605.91;;;11.11;42.23
46722;BME280;32455;43.430;23.136;2023-02-18T06:16:00;98607.31;;;11.20;41.59
46722;BME280;32455;43.430;23.136;2023-02-18T06:18:45;98604.78;;;11.25;40.85
46722;BME280;32455;43.430;23.136;2023-02-18T06:21:30;98602.88;;;11.32;41.33
46722;BME280;32455;43.430;23.136;2023-02-18T06:24:15;98605.34;;;11.65;40.27
46722;BME280;32455;43.430;23.136;2023-02-18T06:27:01;98601.16;;;11.44;40.94
46722;BME280;32455;43.430;23.136;2023-02-18T06:29:46;98601.09;;;11.51;41.95
46722;BME280;32455;43.430;23.136;2023-02-18T06:32:31;98607.78;;;11.98;39.84
46722;BME280;32455;43.430;23.136;2023-02-18T06:35:16;98601.41;;;11.93;39.96
46722;BME280;32455;43.430;23.136;2023-02-18T06:38:04;98597.25;;;12.15;39.80
46722;BME280;32455;43.430;23.136;2023-02-18T06:40:49;98601.13;;;12.26;39.86
46722;BME280;32455;43.430;23.136;2023-02-18T06:43:35;98601.41;;;12.36;40.50
46722;BME280;32455;43.430;23.136;2023-02-18T06:46:20;98595.66;;;12.51;39.53
46722;BME280;32455;43.430;23.136;2023-02-18T06:49:05;98587.19;;;12.66;38.79
46722;BME280;32455;43.430;23.136;2023-02-18T06:51:50;98589.34;;;12.75;40.01
46722;BME280;32455;43.430;23.136;2023-02-18T06:54:35;98587.09;;;12.91;39.75
46722;BME280;32455;43.430;23.136;2023-02-18T06:57:19;98583.50;;;13.27;39.22
46722;BME280;32455;43.430;23.136;2023-02-18T07:00:04;98575.94;;;13.47;37.84
46722;BME280;32455;43.430;23.136;2023-02-18T07:02:49;98583.56;;;13.50;38.19
46722;BME280;32455;43.430;23.136;2023-02-18T07:05:34;98594.75;;;13.54;37.56
46722;BME280;32455;43.430;23.136;2023-02-18T07:08:20;98592.19;;;13.71;37.40
46722;BME280;32455;43.430;23.136;2023-02-18T07:11:05;98599.56;;;13.64;37.11
46722;BME280;32455;43.430;23.136;2023-02-18T07:13:50;98598.47;;;13.53;37.76
46722;BME280;32455;43.430;23.136;2023-02-18T07:16:36;98607.56;;;13.70;37.90
46722;BME280;32455;43.430;23.136;2023-02-18T07:19:21;98608.00;;;13.56;38.46
46722;BME280;32455;43.430;23.136;2023-02-18T07:22:06;98616.13;;;13.25;38.79
46722;BME280;32455;43.430;23.136;2023-02-18T07:24:51;98626.69;;;13.09;39.65
46722;BME280;32455;43.430;23.136;2023-02-18T07:27:37;98623.41;;;13.07;39.41
46722;BME280;32455;43.430;23.136;2023-02-18T07:30:22;98623.09;;;12.96;40.00
46722;BME280;32455;43.430;23.136;2023-02-18T07:33:07;98630.81;;;12.93;41.06
46722;BME280;32455;43.430;23.136;2023-02-18T07:35:53;98631.69;;;12.93;40.22
46722;BME280;32455;43.430;23.136;2023-02-18T07:38:38;98639.84;;;12.87;40.31
46722;BME280;32455;43.430;23.136;2023-02-18T07:41:23;98638.94;;;12.74;41.00
46722;BME280;32455;43.430;23.136;2023-02-18T07:44:08;98643.88;;;12.77;39.41
46722;BME280;32455;43.430;23.136;2023-02-18T07:46:54;98633.97;;;12.71;42.65
46722;BME280;32455;43.430;23.136;2023-02-18T07:49:39;98630.25;;;12.72;40.09
46722;BME280;32455;43.430;23.136;2023-02-18T07:52:24;98639.31;;;12.78;39.75
46722;BME280;32455;43.430;23.136;2023-02-18T07:55:09;98646.66;;;12.89;41.86
46722;BME280;32455;43.430;23.136;2023-02-18T07:57:54;98642.25;;;12.76;40.90
46722;BME280;32455;43.430;23.136;2023-02-18T08:00:44;98634.59;;;12.73;41.25
46722;BME280;32455;43.430;23.136;2023-02-18T08:03:31;98624.94;;;12.66;40.54
46722;BME280;32455;43.430;23.136;2023-02-18T08:06:21;98637.22;;;12.62;41.65
46722;BME280;32455;43.430;23.136;2023-02-18T08:09:09;98632.13;;;12.72;40.92
46722;BME280;32455;43.430;23.136;2023-02-18T08:11:54;98629.78;;;12.75;40.88
46722;BME280;32455;43.430;23.136;2023-02-18T08:14:39;98647.94;;;12.87;40.54
46722;BME280;32455;43.430;23.136;2023-02-18T08:17:26;98648.22;;;12.97;40.67
46722;BME280;32455;43.430;23.136;2023-02-18T08:20:11;98644.44;;;13.16;40.42
46722;BME280;32455;43.430;23.136;2023-02-18T08:22:56;98642.34;;;13.18;39.46
46722;BME280;32455;43.430;23.136;2023-02-18T08:25:45;98643.75;;;13.21;40.60
46722;BME280;32455;43.430;23.136;2023-02-18T08:28:30;98636.28;;;13.23;39.83
46722;BME280;32455;43.430;23.136;2023-02-18T08:31:19;98627.81;;;13.19;41.38
46722;BME280;32455;43.430;23.136;2023-02-18T08:34:04;98636.19;;;13.30;41.08
46722;BME280;32455;43.430;23.136;2023-02-18T08:36:49;98628.03;;;13.48;40.36
46722;BME280;32455;43.430;23.136;2023-02-18T08:39:35;98631.53;;;13.78;40.56
46722;BME280;32455;43.430;23.136;2023-02-18T08:42:21;98630.25;;;13.81;40.22
46722;BME280;32455;43.430;23.136;2023-02-18T08:45:05;98632.84;;;13.99;39.39
46722;BME280;32455;43.430;23.136;2023-02-18T08:47:50;98628.88;;;14.02;41.29
46722;BME280;32455;43.430;23.136;2023-02-18T08:50:36;98624.88;;;14.04;39.52
46722;BME280;32455;43.430;23.136;2023-02-18T08:53:21;98643.91;;;14.21;39.94
46722;BME280;32455;43.430;23.136;2023-02-18T08:56:07;98650.75;;;14.24;40.21
46722;BME280;32455;43.430;23.136;2023-02-18T08:58:52;98656.25;;;14.29;40.21
46722;BME280;32455;43.430;23.136;2023-02-18T09:01:38;98654.00;;;14.26;40.37
46722;BME280;32455;43.430;23.136;2023-02-18T09:04:23;98648.63;;;14.14;43.22
46722;BME280;32455;43.430;23.136;2023-02-18T09:07:08;98661.78;;;14.11;41.37
46722;BME280;32455;43.430;23.136;2023-02-18T09:09:53;98654.38;;;14.29;41.10
46722;BME280;32455;43.430;23.136;2023-02-18T09:12:38;98657.34;;;14.40;41.50
46722;BME280;32455;43.430;23.136;2023-02-18T09:15:23;98668.03;;;14.35;41.62
46722;BME280;32455;43.430;23.136;2023-02-18T09:18:08;98663.91;;;14.32;42.61
46722;BME280;32455;43.430;23.136;2023-02-18T09:20:57;98659.53;;;14.43;42.91
46722;BME280;32455;43.430;23.136;2023-02-18T09:23:42;98654.13;;;14.43;42.96
46722;BME280;32455;43.430;23.136;2023-02-18T09:26:27;98655.69;;;14.62;41.82
46722;BME280;32455;43.430;23.136;2023-02-18T09:29:13;98650.66;;;14.54;41.65
46722;BME280;32455;43.430;23.136;2023-02-18T09:32:01;98651.31;;;14.73;39.66
46722;BME280;32455;43.430;23.136;2023-02-18T09:34:46;98648.75;;;14.66;39.98
46722;BME280;32455;43.430;23.136;2023-02-18T09:37:32;98647.84;;;14.61;39.64
46722;BME280;32455;43.430;23.136;2023-02-18T09:40:27;98650.84;;;14.76;39.35
46722;BME280;32455;43.430;23.136;2023-02-18T09:43:18;98648.94;;;15.00;39.44
46722;BME280;32455;43.430;23.136;2023-02-18T09:46:08;98649.19;;;15.27;39.45
46722;BME280;32455;43.430;23.136;2023-02-18T09:49:01;98644.06;;;15.42;39.46
46722;BME280;32455;43.430;23.136;2023-02-18T09:51:47;98651.56;;;15.52;40.20
46722;BME280;32455;43.430;23.136;2023-02-18T09:54:32;98651.03;;;15.67;38.45
46722;BME280;32455;43.430;23.136;2023-02-18T09:57:39;98658.78;;;15.92;36.17
46722;BME280;32455;43.430;23.136;2023-02-18T10:00:36;98679.16;;;15.94;37.52
46722;BME280;32455;43.430;23.136;2023-02-18T10:03:23;98676.13;;;15.91;35.54
46722;BME280;32455;43.430;23.136;2023-02-18T10:06:10;98671.78;;;15.90;36.37
46722;BME280;32455;43.430;23.136;2023-02-18T10:08:56;98672.72;;;15.84;36.92
46722;BME280;32455;43.430;23.136;2023-02-18T10:11:45;98658.44;;;15.71;37.20
46722;BME280;32455;43.430;23.136;2023-02-18T10:14:31;98652.72;;;15.85;37.21
46722;BME280;32455;43.430;23.136;2023-02-18T10:17:16;98650.91;;;15.90;38.69
46722;BME280;32455;43.430;23.136;2023-02-18T10:20:01;98647.78;;;15.98;39.94
46722;BME280;32455;43.430;23.136;2023-02-18T10:22:46;98649.50;;;15.88;39.55
46722;BME280;32455;43.430;23.136;2023-02-18T10:25:32;98651.56;;;16.14;38.11
46722;BME280;32455;43.430;23.136;2023-02-18T10:28:21;98655.00;;;16.10;37.16
46722;BME280;32455;43.430;23.136;2023-02-18T10:31:09;98655.28;;;16.08;35.45
46722;BME280;32455;43.430;23.136;2023-02-18T10:33:58;98647.63;;;16.05;35.68
46722;BME280;32455;43.430;23.136;2023-02-18T10:36:46;98653.63;;;16.07;35.31
46722;BME280;32455;43.430;23.136;2023-02-18T10:40:16;98646.72;;;15.99;35.96
46722;BME280;32455;43.430;23.136;2023-02-18T10:42:57;98638.94;;;16.03;35.40
46722;BME280;32455;43.430;23.136;2023-02-18T10:51:56;98623.72;;;15.85;35.57
46722;BME280;32455;43.430;23.136;2023-02-18T10:54:51;98613.63;;;15.97;35.33
46722;BME280;32455;43.430;23.136;2023-02-18T10:57:49;98606.31;;;15.98;35.38
46722;BME280;32455;43.430;23.136;2023-02-18T11:00:35;98611.56;;;16.05;35.56
46722;BME280;32455;43.430;23.136;2023-02-18T11:03:24;98600.78;;;16.26;36.00
46722;BME280;32455;43.430;23.136;2023-02-18T11:12:33;98591.72;;;16.76;38.00
46722;BME280;32455;43.430;23.136;2023-02-18T11:15:21;98587.50;;;16.86;36.37
46722;BME280;32455;43.430;23.136;2023-02-18T11:18:27;98585.53;;;17.03;37.27
46722;BME280;32455;43.430;23.136;2023-02-18T11:21:33;98587.22;;;16.87;36.09
46722;BME280;32455;43.430;23.136;2023-02-18T11:24:19;98590.25;;;16.91;35.78
46722;BME280;32455;43.430;23.136;2023-02-18T11:27:08;98595.91;;;16.84;36.50
46722;BME280;32455;43.430;23.136;2023-02-18T11:29:59;98596.75;;;16.68;34.12
46722;BME280;32455;43.430;23.136;2023-02-18T11:32:45;98584.72;;;16.81;34.64
46722;BME280;32455;43.430;23.136;2023-02-18T11:35:32;98592.81;;;16.75;34.19
46722;BME280;32455;43.430;23.136;2023-02-18T11:38:22;98595.75;;;16.74;33.88
46722;BME280;32455;43.430;23.136;2023-02-18T11:41:09;98591.81;;;16.65;33.68
46722;BME280;32455;43.430;23.136;2023-02-18T11:43:55;98575.53;;;16.65;34.08
46722;BME280;32455;43.430;23.136;2023-02-18T11:46:47;98582.06;;;16.86;34.35
46722;BME280;32455;43.430;23.136;2023-02-18T11:49:41;98572.03;;;16.86;34.05
46722;BME280;32455;43.430;23.136;2023-02-18T11:52:29;98575.06;;;17.17;33.86
46722;BME280;32455;43.430;23.136;2023-02-18T11:58:05;98568.00;;;17.16;34.23
46722;BME280;32455;43.430;23.136;2023-02-18T12:00:50;98568.94;;;17.26;33.81
46722;BME280;32455;43.430;23.136;2023-02-18T12:03:44;98570.16;;;17.41;33.53
46722;BME280;32455;43.430;23.136;2023-02-18T12:06:41;98561.75;;;17.42;33.84
46722;BME280;32455;43.430;23.136;2023-02-18T12:15:08;98563.09;;;17.13;32.66
46722;BME280;32455;43.430;23.136;2023-02-18T12:18:04;98572.84;;;17.09;32.67
46722;BME280;32455;43.430;23.136;2023-02-18T12:38:35;98560.84;;;16.83;35.16
46722;BME280;32455;43.430;23.136;2023-02-18T12:44:36;98558.50;;;16.69;35.24
46722;BME280;32455;43.430;23.136;2023-02-18T12:47:34;98553.38;;;16.51;34.64
46722;BME280;32455;43.430;23.136;2023-02-18T12:50:29;98556.91;;;16.51;34.61
46722;BME280;32455;43.430;23.136;2023-02-18T12:59:33;98547.56;;;16.64;35.76
46722;BME280;32455;43.430;23.136;2023-02-18T13:14:10;98550.84;;;16.06;36.48
46722;BME280;32455;43.430;23.136;2023-02-18T13:16:57;98549.81;;;16.07;35.62
46722;BME280;32455;43.430;23.136;2023-02-18T13:19:45;98565.34;;;15.94;35.84
46722;BME280;32455;43.430;23.136;2023-02-18T13:22:31;98560.28;;;16.20;35.52
46722;BME280;32455;43.430;23.136;2023-02-18T13:25:17;98552.66;;;16.00;35.87
46722;BME280;32455;43.430;23.136;2023-02-18T13:28:07;98550.13;;;16.10;35.61
46722;BME280;32455;43.430;23.136;2023-02-18T13:31:00;98557.19;;;16.11;36.26
46722;BME280;32455;43.430;23.136;2023-02-18T13:33:55;98554.91;;;16.03;35.65
46722;BME280;32455;43.430;23.136;2023-02-18T13:36:51;98557.75;;;15.96;35.82
46722;BME280;32455;43.430;23.136;2023-02-18T13:39:45;98556.03;;;16.07;35.60
46722;BME280;32455;43.430;23.136;2023-02-18T13:42:35;98543.75;;;16.21;35.43
46722;BME280;32455;43.430;23.136;2023-02-18T13:45:25;98543.38;;;16.13;35.65
46722;BME280;32455;43.430;23.136;2023-02-18T13:48:25;98539.03;;;16.12;35.56
46722;BME280;32455;43.430;23.136;2023-02-18T13:51:14;98547.91;;;16.07;36.31
46722;BME280;32455;43.430;23.136;2023-02-18T13:56:59;98545.53;;;16.11;36.50
46722;BME280;32455;43.430;23.136;2023-02-18T13:59:49;98534.28;;;16.02;36.45
46722;BME280;32455;43.430;23.136;2023-02-18T14:02:36;98529.91;;;16.01;37.02
46722;BME280;32455;43.430;23.136;2023-02-18T14:05:40;98529.81;;;16.13;38.47
46722;BME280;32455;43.430;23.136;2023-02-18T14:19:53;98497.47;;;16.06;37.23
46722;BME280;32455;43.430;23.136;2023-02-18T14:25:32;98504.59;;;16.12;38.18
46722;BME280;32455;43.430;23.136;2023-02-18T14:31:28;98501.34;;;16.10;38.07
46722;BME280;32455;43.430;23.136;2023-02-18T14:34:21;98491.78;;;16.08;38.86
46722;BME280;32455;43.430;23.136;2023-02-18T14:37:33;98481.78;;;16.08;39.03
46722;BME280;32455;43.430;23.136;2023-02-18T14:43:25;98492.06;;;16.06;37.85
46722;BME280;32455;43.430;23.136;2023-02-18T14:49:29;98473.63;;;15.86;39.88
46722;BME280;32455;43.430;23.136;2023-02-18T14:55:20;98471.81;;;15.75;38.98
46722;BME280;32455;43.430;23.136;2023-02-18T14:58:18;98467.47;;;15.74;39.05
46722;BME280;32455;43.430;23.136;2023-02-18T15:04:04;98474.09;;;15.49;39.06
46722;BME280;32455;43.430;23.136;2023-02-18T15:07:10;98480.44;;;15.38;39.61
46722;BME280;32455;43.430;23.136;2023-02-18T15:09:56;98475.56;;;15.23;40.04
46722;BME280;32455;43.430;23.136;2023-02-18T15:12:41;98480.09;;;15.18;40.12
46722;BME280;32455;43.430;23.136;2023-02-18T15:15:27;98489.00;;;15.01;40.15
46722;BME280;32455;43.430;23.136;2023-02-18T15:24:25;98476.53;;;14.43;42.55
46722;BME280;32455;43.430;23.136;2023-02-18T15:27:13;98481.31;;;14.01;45.38
46722;BME280;32455;43.430;23.136;2023-02-18T15:30:20;98487.56;;;13.78;44.24
46722;BME280;32455;43.430;23.136;2023-02-18T15:33:08;98482.97;;;13.78;45.56
46722;BME280;32455;43.430;23.136;2023-02-18T15:36:02;98473.34;;;13.47;48.60
46722;BME280;32455;43.430;23.136;2023-02-18T15:38:47;98478.38;;;12.90;48.81
46722;BME280;32455;43.430;23.136;2023-02-18T15:41:33;98475.78;;;12.84;49.71
46722;BME280;32455;43.430;23.136;2023-02-18T15:44:19;98482.97;;;12.60;51.09
46722;BME280;32455;43.430;23.136;2023-02-18T15:47:07;98476.72;;;11.92;52.42
46722;BME280;32455;43.430;23.136;2023-02-18T15:49:53;98484.66;;;11.87;53.43
46722;BME280;32455;43.430;23.136;2023-02-18T15:52:39;98477.78;;;11.66;53.28
46722;BME280;32455;43.430;23.136;2023-02-18T15:58:14;98487.56;;;11.86;52.22
46722;BME280;32455;43.430;23.136;2023-02-18T16:01:04;98488.53;;;11.48;54.16
46722;BME280;32455;43.430;23.136;2023-02-18T16:03:50;98487.94;;;11.64;50.36
46722;BME280;32455;43.430;23.136;2023-02-18T16:06:37;98484.38;;;11.70;52.93
46722;BME280;32455;43.430;23.136;2023-02-18T16:09:25;98478.41;;;11.43;52.67
46722;BME280;32455;43.430;23.136;2023-02-18T16:12:24;98489.47;;;11.35;52.42
46722;BME280;32455;43.430;23.136;2023-02-18T16:15:13;98493.66;;;10.61;55.36
46722;BME280;32455;43.430;23.136;2023-02-18T16:18:00;98489.50;;;10.65;55.23
46722;BME280;32455;43.430;23.136;2023-02-18T16:20:51;98480.75;;;11.08;53.88
46722;BME280;32455;43.430;23.136;2023-02-18T16:23:42;98482.56;;;10.89;53.98
46722;BME280;32455;43.430;23.136;2023-02-18T16:26:29;98477.03;;;10.77;54.85
46722;BME280;32455;43.430;23.136;2023-02-18T16:29:15;98478.16;;;10.12;57.66
46722;BME280;32455;43.430;23.136;2023-02-18T16:32:05;98466.25;;;9.94;59.10
46722;BME280;32455;43.430;23.136;2023-02-18T16:34:50;98478.09;;;9.47;59.97
46722;BME280;32455;43.430;23.136;2023-02-18T16:37:35;98471.50;;;9.56;60.40
46722;BME280;32455;43.430;23.136;2023-02-18T16:40:26;98469.22;;;9.20;61.96
46722;BME280;32455;43.430;23.136;2023-02-18T16:43:16;98468.41;;;9.19;60.86
46722;BME280;32455;43.430;23.136;2023-02-18T16:46:06;98459.53;;;9.19;60.83
46722;BME280;32455;43.430;23.136;2023-02-18T16:48:52;98463.06;;;9.26;60.55
46722;BME280;32455;43.430;23.136;2023-02-18T16:51:41;98454.59;;;9.02;62.59
46722;BME280;32455;43.430;23.136;2023-02-18T16:54:28;98453.53;;;8.90;62.28